sensor_id;sensor_type;location;lat;lon;timestamp;pressure;altitude;pressure_sealevel;temperature
27826;BMP280;15077;49.704;9.908;2024-03-02T00:02:14;96998.38;;;12.09
27826;BMP280;15077;49.704;9.908;2024-03-02T00:04:40;96995.91;;;12.08
27826;BMP280;15077;49.704;9.908;2024-03-02T00:07:07;96999.47;;;12.05
27826;BMP280;15077;49.704;9.908;2024-03-02T00:09:34;96992.66;;;12.06
27826;BMP280;15077;49.704;9.908;2024-03-02T00:12:02;96993.59;;;12.05
27826;BMP280;15077;49.704;9.908;2024-03-02T00:14:30;96988.59;;;12.03
27826;BMP280;15077;49.704;9.908;2024-03-02T00:17:00;96988.78;;;12.00
27826;BMP280;15077;49.704;9.908;2024-03-02T00:19:26;96983.88;;;11.97
27826;BMP280;15077;49.704;9.908;2024-03-02T00:21:52;96987.34;;;11.96
27826;BMP280;15077;49.704;9.908;2024-03-02T00:26:45;96988.44;;;11.92
27826;BMP280;15077;49.704;9.908;2024-03-02T00:29:13;96992.81;;;11.90
27826;BMP280;15077;49.704;9.908;2024-03-02T00:31:45;96996.25;;;11.89
27826;BMP280;15077;49.704;9.908;2024-03-02T00:34:13;96989.53;;;11.88
27826;BMP280;15077;49.704;9.908;2024-03-02T00:36:42;96996.44;;;11.86
27826;BMP280;15077;49.704;9.908;2024-03-02T00:39:12;97001.53;;;11.86
27826;BMP280;15077;49.704;9.908;2024-03-02T00:41:40;96999.88;;;11.85
27826;BMP280;15077;49.704;9.908;2024-03-02T00:44:09;97004.06;;;11.86
27826;BMP280;15077;49.704;9.908;2024-03-02T00:46:41;96999.97;;;11.84
27826;BMP280;15077;49.704;9.908;2024-03-02T00:49:22;97005.06;;;11.84
27826;BMP280;15077;49.704;9.908;2024-03-02T00:51:52;97004.25;;;11.83
27826;BMP280;15077;49.704;9.908;2024-03-02T00:54:22;97006.78;;;11.83
27826;BMP280;15077;49.704;9.908;2024-03-02T00:56:50;97003.53;;;11.81
27826;BMP280;15077;49.704;9.908;2024-03-02T00:59:17;96996.81;;;11.80
27826;BMP280;15077;49.704;9.908;2024-03-02T01:01:43;96995.09;;;11.81
27826;BMP280;15077;49.704;9.908;2024-03-02T01:04:09;96999.47;;;11.79
27826;BMP280;15077;49.704;9.908;2024-03-02T01:06:35;97002.81;;;11.79
27826;BMP280;15077;49.704;9.908;2024-03-02T01:09:01;97001.19;;;11.78
27826;BMP280;15077;49.704;9.908;2024-03-02T01:11:28;97007.88;;;11.79
27826;BMP280;15077;49.704;9.908;2024-03-02T01:13:53;97003.63;;;11.80
27826;BMP280;15077;49.704;9.908;2024-03-02T01:16:19;97005.34;;;11.79
27826;BMP280;15077;49.704;9.908;2024-03-02T01:18:45;97007.88;;;11.79
27826;BMP280;15077;49.704;9.908;2024-03-02T01:21:11;97010.41;;;11.79
27826;BMP280;15077;49.704;9.908;2024-03-02T01:23:37;97020.56;;;11.79
27826;BMP280;15077;49.704;9.908;2024-03-02T01:26:03;97008.81;;;11.78
27826;BMP280;15077;49.704;9.908;2024-03-02T01:28:29;97007.16;;;11.77
27826;BMP280;15077;49.704;9.908;2024-03-02T01:30:54;97014.78;;;11.77
27826;BMP280;15077;49.704;9.908;2024-03-02T01:33:20;97010.59;;;11.76
27826;BMP280;15077;49.704;9.908;2024-03-02T01:35:46;97009.00;;;11.75
27826;BMP280;15077;49.704;9.908;2024-03-02T01:38:12;97002.19;;;11.76
27826;BMP280;15077;49.704;9.908;2024-03-02T01:40:39;97000.53;;;11.75
27826;BMP280;15077;49.704;9.908;2024-03-02T01:43:05;97002.28;;;11.74
27826;BMP280;15077;49.704;9.908;2024-03-02T01:45:31;96995.66;;;11.72
27826;BMP280;15077;49.704;9.908;2024-03-02T01:47:58;96992.31;;;11.71
27826;BMP280;15077;49.704;9.908;2024-03-02T01:50:28;97005.91;;;11.70
27826;BMP280;15077;49.704;9.908;2024-03-02T01:52:55;97003.47;;;11.69
27826;BMP280;15077;49.704;9.908;2024-03-02T01:55:21;97002.66;;;11.68
27826;BMP280;15077;49.704;9.908;2024-03-02T01:57:47;97005.28;;;11.67
27826;BMP280;15077;49.704;9.908;2024-03-02T02:00:13;97003.66;;;11.66
27826;BMP280;15077;49.704;9.908;2024-03-02T02:02:39;96998.69;;;11.64
27826;BMP280;15077;49.704;9.908;2024-03-02T02:05:06;97007.13;;;11.65
27826;BMP280;15077;49.704;9.908;2024-03-02T02:07:33;96999.59;;;11.63
27826;BMP280;15077;49.704;9.908;2024-03-02T02:10:00;97003.84;;;11.63
27826;BMP280;15077;49.704;9.908;2024-03-02T02:12:27;96976.94;;;11.61
27826;BMP280;15077;49.704;9.908;2024-03-02T02:14:54;96984.56;;;11.61
27826;BMP280;15077;49.704;9.908;2024-03-02T02:17:20;96972.78;;;11.60
27826;BMP280;15077;49.704;9.908;2024-03-02T02:19:47;96982.13;;;11.59
27826;BMP280;15077;49.704;9.908;2024-03-02T02:22:13;96982.22;;;11.58
27826;BMP280;15077;49.704;9.908;2024-03-02T02:24:41;96978.13;;;11.55
27826;BMP280;15077;49.704;9.908;2024-03-02T02:27:10;96980.78;;;11.54
27826;BMP280;15077;49.704;9.908;2024-03-02T02:29:38;96980.03;;;11.52
27826;BMP280;15077;49.704;9.908;2024-03-02T02:32:03;96982.56;;;11.52
27826;BMP280;15077;49.704;9.908;2024-03-02T02:34:29;96971.72;;;11.50
27826;BMP280;15077;49.704;9.908;2024-03-02T02:36:55;96982.66;;;11.50
27826;BMP280;15077;49.704;9.908;2024-03-02T02:39:21;96983.69;;;11.48
27826;BMP280;15077;49.704;9.908;2024-03-02T02:41:50;96981.31;;;11.45
27826;BMP280;15077;49.704;9.908;2024-03-02T02:44:16;96974.69;;;11.42
27826;BMP280;15077;49.704;9.908;2024-03-02T02:46:41;96974.06;;;11.39
27826;BMP280;15077;49.704;9.908;2024-03-02T02:49:07;96977.69;;;11.35
27826;BMP280;15077;49.704;9.908;2024-03-02T02:51:33;96972.09;;;11.30
27826;BMP280;15077;49.704;9.908;2024-03-02T02:53:58;96979.69;;;11.30
27826;BMP280;15077;49.704;9.908;2024-03-02T02:56:24;96971.53;;;11.25
27826;BMP280;15077;49.704;9.908;2024-03-02T02:58:50;96974.16;;;11.23
27826;BMP280;15077;49.704;9.908;2024-03-02T03:01:16;96971.91;;;11.19
27826;BMP280;15077;49.704;9.908;2024-03-02T03:03:45;96971.38;;;11.14
27826;BMP280;15077;49.704;9.908;2024-03-02T03:06:11;96974.72;;;11.14
27826;BMP280;15077;49.704;9.908;2024-03-02T03:08:37;96967.19;;;11.13
27826;BMP280;15077;49.704;9.908;2024-03-02T03:11:03;96963.97;;;11.11
27826;BMP280;15077;49.704;9.908;2024-03-02T03:13:31;96969.03;;;11.11
27826;BMP280;15077;49.704;9.908;2024-03-02T03:15:56;96974.91;;;11.12
27826;BMP280;15077;49.704;9.908;2024-03-02T03:18:22;96969.91;;;11.10
27826;BMP280;15077;49.704;9.908;2024-03-02T03:20:47;96974.09;;;11.11
27826;BMP280;15077;49.704;9.908;2024-03-02T03:23:13;96962.31;;;11.10
27826;BMP280;15077;49.704;9.908;2024-03-02T03:25:42;96967.28;;;11.12
27826;BMP280;15077;49.704;9.908;2024-03-02T03:28:09;96979.16;;;11.11
27826;BMP280;15077;49.704;9.908;2024-03-02T03:30:38;96980.81;;;11.12
27826;BMP280;15077;49.704;9.908;2024-03-02T03:33:04;96977.53;;;11.10
27826;BMP280;15077;49.704;9.908;2024-03-02T03:35:34;96975.91;;;11.09
27826;BMP280;15077;49.704;9.908;2024-03-02T03:38:00;96976.91;;;11.07
27826;BMP280;15077;49.704;9.908;2024-03-02T03:40:26;96972.81;;;11.04
27826;BMP280;15077;49.704;9.908;2024-03-02T03:42:51;96976.44;;;11.00
27826;BMP280;15077;49.704;9.908;2024-03-02T03:45:17;96969.00;;;10.97
27826;BMP280;15077;49.704;9.908;2024-03-02T03:47:43;96969.19;;;10.94
27826;BMP280;15077;49.704;9.908;2024-03-02T03:50:09;96967.69;;;10.92
27826;BMP280;15077;49.704;9.908;2024-03-02T03:52:35;96970.50;;;10.87
27826;BMP280;15077;49.704;9.908;2024-03-02T03:55:00;96977.34;;;10.85
27826;BMP280;15077;49.704;9.908;2024-03-02T03:57:27;96974.28;;;10.80
27826;BMP280;15077;49.704;9.908;2024-03-02T03:59:53;96978.72;;;10.77
27826;BMP280;15077;49.704;9.908;2024-03-02T04:02:19;96987.31;;;10.74
27826;BMP280;15077;49.704;9.908;2024-03-02T04:04:45;96981.63;;;10.71
27826;BMP280;15077;49.704;9.908;2024-03-02T04:07:10;96989.41;;;10.68
27826;BMP280;15077;49.704;9.908;2024-03-02T04:09:36;96990.38;;;10.65
27826;BMP280;15077;49.704;9.908;2024-03-02T04:12:02;96990.56;;;10.63
27826;BMP280;15077;49.704;9.908;2024-03-02T04:14:27;96988.13;;;10.61
27826;BMP280;15077;49.704;9.908;2024-03-02T04:16:53;96989.09;;;10.59
27826;BMP280;15077;49.704;9.908;2024-03-02T04:19:19;96993.25;;;10.60
27826;BMP280;15077;49.704;9.908;2024-03-02T04:21:46;96991.88;;;10.54
27826;BMP280;15077;49.704;9.908;2024-03-02T04:24:12;96983.56;;;10.52
27826;BMP280;15077;49.704;9.908;2024-03-02T04:26:37;96984.56;;;10.50
27826;BMP280;15077;49.704;9.908;2024-03-02T04:29:03;96981.31;;;10.48
27826;BMP280;15077;49.704;9.908;2024-03-02T04:31:28;96984.72;;;10.47
27826;BMP280;15077;49.704;9.908;2024-03-02T04:33:54;96984.03;;;10.45
27826;BMP280;15077;49.704;9.908;2024-03-02T04:36:20;96986.56;;;10.45
27826;BMP280;15077;49.704;9.908;2024-03-02T04:38:46;96984.09;;;10.43
27826;BMP280;15077;49.704;9.908;2024-03-02T04:41:12;96984.91;;;10.44
27826;BMP280;15077;49.704;9.908;2024-03-02T04:43:38;96979.03;;;10.43
27826;BMP280;15077;49.704;9.908;2024-03-02T04:46:04;96987.63;;;10.41
27826;BMP280;15077;49.704;9.908;2024-03-02T04:48:30;96988.41;;;10.41
27826;BMP280;15077;49.704;9.908;2024-03-02T04:50:56;96991.03;;;10.40
27826;BMP280;15077;49.704;9.908;2024-03-02T04:53:22;96989.44;;;10.39
27826;BMP280;15077;49.704;9.908;2024-03-02T04:55:47;96991.03;;;10.40
27826;BMP280;15077;49.704;9.908;2024-03-02T04:58:19;97004.72;;;10.37
27826;BMP280;15077;49.704;9.908;2024-03-02T05:00:45;96995.47;;;10.36
27826;BMP280;15077;49.704;9.908;2024-03-02T05:03:12;96991.38;;;10.34
27826;BMP280;15077;49.704;9.908;2024-03-02T05:05:38;97001.53;;;10.34
27826;BMP280;15077;49.704;9.908;2024-03-02T05:08:04;96999.00;;;10.34
27826;BMP280;15077;49.704;9.908;2024-03-02T05:10:30;96996.53;;;10.32
27826;BMP280;15077;49.704;9.908;2024-03-02T05:12:56;97001.59;;;10.32
27826;BMP280;15077;49.704;9.908;2024-03-02T05:15:25;97005.88;;;10.32
27826;BMP280;15077;49.704;9.908;2024-03-02T05:17:50;97006.59;;;10.34
27826;BMP280;15077;49.704;9.908;2024-03-02T05:20:16;97011.66;;;10.34
27826;BMP280;15077;49.704;9.908;2024-03-02T05:22:42;97008.31;;;10.33
27826;BMP280;15077;49.704;9.908;2024-03-02T05:25:08;97012.56;;;10.33
27826;BMP280;15077;49.704;9.908;2024-03-02T05:27:37;97012.56;;;10.33
27826;BMP280;15077;49.704;9.908;2024-03-02T05:30:03;97013.38;;;10.33
27826;BMP280;15077;49.704;9.908;2024-03-02T05:32:29;97011.66;;;10.34
27826;BMP280;15077;49.704;9.908;2024-03-02T05:34:54;97017.63;;;10.33
27826;BMP280;15077;49.704;9.908;2024-03-02T05:37:20;97015.09;;;10.33
27826;BMP280;15077;49.704;9.908;2024-03-02T05:39:46;97014.25;;;10.32
27826;BMP280;15077;49.704;9.908;2024-03-02T05:42:11;97011.66;;;10.34
27826;BMP280;15077;49.704;9.908;2024-03-02T05:44:37;97015.81;;;10.35
27826;BMP280;15077;49.704;9.908;2024-03-02T05:47:03;97015.00;;;10.34
27826;BMP280;15077;49.704;9.908;2024-03-02T05:49:29;97012.56;;;10.33
27826;BMP280;15077;49.704;9.908;2024-03-02T05:51:55;97016.63;;;10.35
27826;BMP280;15077;49.704;9.908;2024-03-02T05:54:20;97010.94;;;10.32
27826;BMP280;15077;49.704;9.908;2024-03-02T05:56:46;97015.09;;;10.33
27826;BMP280;15077;49.704;9.908;2024-03-02T05:59:12;97022.69;;;10.33
27826;BMP280;15077;49.704;9.908;2024-03-02T06:01:43;97015.09;;;10.33
27826;BMP280;15077;49.704;9.908;2024-03-02T06:04:09;97017.63;;;10.33
27826;BMP280;15077;49.704;9.908;2024-03-02T06:06:36;97014.19;;;10.34
27826;BMP280;15077;49.704;9.908;2024-03-02T06:09:03;97013.28;;;10.35
27826;BMP280;15077;49.704;9.908;2024-03-02T06:11:39;97014.00;;;10.37
27826;BMP280;15077;49.704;9.908;2024-03-02T06:14:05;97017.28;;;10.39
27826;BMP280;15077;49.704;9.908;2024-03-02T06:16:32;97015.56;;;10.39
27826;BMP280;15077;49.704;9.908;2024-03-02T06:18:58;97005.34;;;10.41
27826;BMP280;15077;49.704;9.908;2024-03-02T06:21:24;97006.16;;;10.41
27826;BMP280;15077;49.704;9.908;2024-03-02T06:23:50;97005.16;;;10.44
27826;BMP280;15077;49.704;9.908;2024-03-02T06:26:16;97008.41;;;10.46
27826;BMP280;15077;49.704;9.908;2024-03-02T06:28:42;97001.66;;;10.46
27826;BMP280;15077;49.704;9.908;2024-03-02T06:31:08;97021.00;;;10.47
27826;BMP280;15077;49.704;9.908;2024-03-02T06:33:34;97012.59;;;10.47
27826;BMP280;15077;49.704;9.908;2024-03-02T06:36:00;97021.00;;;10.47
27826;BMP280;15077;49.704;9.908;2024-03-02T06:38:26;97012.50;;;10.48
27826;BMP280;15077;49.704;9.908;2024-03-02T06:40:51;97010.06;;;10.47
27826;BMP280;15077;49.704;9.908;2024-03-02T06:43:17;97011.69;;;10.48
27826;BMP280;15077;49.704;9.908;2024-03-02T06:45:44;97027.72;;;10.48
27826;BMP280;15077;49.704;9.908;2024-03-02T06:48:10;97030.25;;;10.48
27826;BMP280;15077;49.704;9.908;2024-03-02T06:50:35;97033.56;;;10.49
27826;BMP280;15077;49.704;9.908;2024-03-02T06:53:01;97032.69;;;10.50
27826;BMP280;15077;49.704;9.908;2024-03-02T06:55:29;97031.78;;;10.51
27826;BMP280;15077;49.704;9.908;2024-03-02T06:57:56;97031.97;;;10.48
27826;BMP280;15077;49.704;9.908;2024-03-02T07:00:21;97035.22;;;10.50
27826;BMP280;15077;49.704;9.908;2024-03-02T07:02:47;97042.00;;;10.49
27826;BMP280;15077;49.704;9.908;2024-03-02T07:05:13;97039.38;;;10.51
27826;BMP280;15077;49.704;9.908;2024-03-02T07:07:38;97038.47;;;10.52
27826;BMP280;15077;49.704;9.908;2024-03-02T07:10:05;97037.50;;;10.54
27826;BMP280;15077;49.704;9.908;2024-03-02T07:12:30;97048.25;;;10.58
27826;BMP280;15077;49.704;9.908;2024-03-02T07:14:57;97050.56;;;10.62
27826;BMP280;15077;49.704;9.908;2024-03-02T07:17:28;97049.53;;;10.64
27826;BMP280;15077;49.704;9.908;2024-03-02T07:19:54;97040.88;;;10.68
27826;BMP280;15077;49.704;9.908;2024-03-02T07:22:20;97043.22;;;10.71
27826;BMP280;15077;49.704;9.908;2024-03-02T07:24:46;97038.78;;;10.75
27826;BMP280;15077;49.704;9.908;2024-03-02T07:27:12;97042.88;;;10.77
27826;BMP280;15077;49.704;9.908;2024-03-02T07:29:38;97045.25;;;10.80
27826;BMP280;15077;49.704;9.908;2024-03-02T07:32:04;97048.31;;;10.85
27826;BMP280;15077;49.704;9.908;2024-03-02T07:34:30;97046.34;;;10.90
27826;BMP280;15077;49.704;9.908;2024-03-02T07:36:56;97046.88;;;10.95
27826;BMP280;15077;49.704;9.908;2024-03-02T07:39:22;97044.16;;;10.98
27826;BMP280;15077;49.704;9.908;2024-03-02T07:41:48;97045.63;;;11.02
27826;BMP280;15077;49.704;9.908;2024-03-02T07:44:14;97050.53;;;11.05
27826;BMP280;15077;49.704;9.908;2024-03-02T07:46:43;97046.06;;;11.09
27826;BMP280;15077;49.704;9.908;2024-03-02T07:49:09;97055.06;;;11.14
27826;BMP280;15077;49.704;9.908;2024-03-02T07:51:35;97054.69;;;11.20
27826;BMP280;15077;49.704;9.908;2024-03-02T07:54:01;97054.50;;;11.23
27826;BMP280;15077;49.704;9.908;2024-03-02T07:56:27;97058.41;;;11.28
27826;BMP280;15077;49.704;9.908;2024-03-02T07:58:54;97056.41;;;11.33
27826;BMP280;15077;49.704;9.908;2024-03-02T08:01:20;97060.31;;;11.39
27826;BMP280;15077;49.704;9.908;2024-03-02T08:03:45;97050.78;;;11.42
27826;BMP280;15077;49.704;9.908;2024-03-02T08:06:18;97047.97;;;11.47
27826;BMP280;15077;49.704;9.908;2024-03-02T08:08:47;97052.19;;;11.48
27826;BMP280;15077;49.704;9.908;2024-03-02T08:11:12;97056.47;;;11.46
27826;BMP280;15077;49.704;9.908;2024-03-02T08:13:38;97053.22;;;11.44
27826;BMP280;15077;49.704;9.908;2024-03-02T08:16:04;97053.22;;;11.44
27826;BMP280;15077;49.704;9.908;2024-03-02T08:18:33;97058.22;;;11.45
27826;BMP280;15077;49.704;9.908;2024-03-02T08:20:58;97061.41;;;11.49
27826;BMP280;15077;49.704;9.908;2024-03-02T08:23:26;97061.22;;;11.52
27826;BMP280;15077;49.704;9.908;2024-03-02T08:25:52;97061.06;;;11.55
27826;BMP280;15077;49.704;9.908;2024-03-02T08:28:17;97060.88;;;11.58
27826;BMP280;15077;49.704;9.908;2024-03-02T08:30:43;97059.75;;;11.62
27826;BMP280;15077;49.704;9.908;2024-03-02T08:33:09;97058.69;;;11.65
27826;BMP280;15077;49.704;9.908;2024-03-02T08:35:34;97062.66;;;11.69
27826;BMP280;15077;49.704;9.908;2024-03-02T08:38:03;97062.47;;;11.72
27826;BMP280;15077;49.704;9.908;2024-03-02T08:40:30;97057.94;;;11.77
27826;BMP280;15077;49.704;9.908;2024-03-02T08:42:55;97057.56;;;11.83
27826;BMP280;15077;49.704;9.908;2024-03-02T08:45:21;97057.19;;;11.89
27826;BMP280;15077;49.704;9.908;2024-03-02T08:47:47;97053.53;;;11.93
27826;BMP280;15077;49.704;9.908;2024-03-02T08:50:13;97052.44;;;11.97
27826;BMP280;15077;49.704;9.908;2024-03-02T08:52:38;97047.81;;;12.04
27826;BMP280;15077;49.704;9.908;2024-03-02T08:55:04;97050.97;;;12.07
27826;BMP280;15077;49.704;9.908;2024-03-02T08:57:31;97057.47;;;12.11
27826;BMP280;15077;49.704;9.908;2024-03-02T08:59:57;97050.38;;;12.16
27826;BMP280;15077;49.704;9.908;2024-03-02T09:02:22;97045.09;;;12.19
27826;BMP280;15077;49.704;9.908;2024-03-02T09:04:48;97056.72;;;12.23
27826;BMP280;15077;49.704;9.908;2024-03-02T09:07:14;97060.59;;;12.28
27826;BMP280;15077;49.704;9.908;2024-03-02T09:09:40;97060.31;;;12.33
27826;BMP280;15077;49.704;9.908;2024-03-02T09:12:07;97065.00;;;12.39
27826;BMP280;15077;49.704;9.908;2024-03-02T09:14:33;97058.72;;;12.44
27826;BMP280;15077;49.704;9.908;2024-03-02T09:16:59;97065.13;;;12.50
27826;BMP280;15077;49.704;9.908;2024-03-02T09:19:24;97068.91;;;12.57
27826;BMP280;15077;49.704;9.908;2024-03-02T09:21:50;97067.72;;;12.62
27826;BMP280;15077;49.704;9.908;2024-03-02T09:24:16;97068.81;;;12.70
27826;BMP280;15077;49.704;9.908;2024-03-02T09:26:41;97068.97;;;12.81
27826;BMP280;15077;49.704;9.908;2024-03-02T09:29:07;97064.00;;;12.92
27826;BMP280;15077;49.704;9.908;2024-03-02T09:31:32;97060.84;;;13.01
27826;BMP280;15077;49.704;9.908;2024-03-02T09:33:58;97065.22;;;13.11
27826;BMP280;15077;49.704;9.908;2024-03-02T09:36:24;97064.63;;;13.20
27826;BMP280;15077;49.704;9.908;2024-03-02T09:38:49;97056.47;;;13.28
27826;BMP280;15077;49.704;9.908;2024-03-02T09:41:15;97069.50;;;13.36
27826;BMP280;15077;49.704;9.908;2024-03-02T09:43:41;97051.19;;;13.43
27826;BMP280;15077;49.704;9.908;2024-03-02T09:46:09;97055.53;;;13.54
27826;BMP280;15077;49.704;9.908;2024-03-02T09:48:35;97053.38;;;13.60
27826;BMP280;15077;49.704;9.908;2024-03-02T09:51:01;97062.13;;;13.68
27826;BMP280;15077;49.704;9.908;2024-03-02T09:53:31;97063.13;;;13.78
27826;BMP280;15077;49.704;9.908;2024-03-02T09:55:57;97064.13;;;13.88
27826;BMP280;15077;49.704;9.908;2024-03-02T09:58:22;97061.84;;;13.96
27826;BMP280;15077;49.704;9.908;2024-03-02T10:00:48;97067.75;;;14.09
27826;BMP280;15077;49.704;9.908;2024-03-02T10:03:14;97060.84;;;14.22
27826;BMP280;15077;49.704;9.908;2024-03-02T10:05:40;97060.03;;;14.34
27826;BMP280;15077;49.704;9.908;2024-03-02T10:08:06;97064.03;;;14.49
27826;BMP280;15077;49.704;9.908;2024-03-02T10:10:36;97067.28;;;14.61
27826;BMP280;15077;49.704;9.908;2024-03-02T10:13:06;97047.41;;;14.77
27826;BMP280;15077;49.704;9.908;2024-03-02T10:15:32;97049.31;;;14.97
27826;BMP280;15077;49.704;9.908;2024-03-02T10:17:58;97049.56;;;15.16
27826;BMP280;15077;49.704;9.908;2024-03-02T10:20:27;97044.06;;;15.33
27826;BMP280;15077;49.704;9.908;2024-03-02T10:23:15;97047.75;;;15.51
27826;BMP280;15077;49.704;9.908;2024-03-02T10:25:42;97033.25;;;15.62
27826;BMP280;15077;49.704;9.908;2024-03-02T10:28:08;97039.06;;;15.75
27826;BMP280;15077;49.704;9.908;2024-03-02T10:30:34;97033.78;;;15.87
27826;BMP280;15077;49.704;9.908;2024-03-02T10:33:03;97030.53;;;15.96
27826;BMP280;15077;49.704;9.908;2024-03-02T10:35:31;97023.91;;;16.04
27826;BMP280;15077;49.704;9.908;2024-03-02T10:38:00;97031.63;;;16.14
27826;BMP280;15077;49.704;9.908;2024-03-02T10:40:27;97028.47;;;16.21
27826;BMP280;15077;49.704;9.908;2024-03-02T10:42:52;97038.00;;;16.30
27826;BMP280;15077;49.704;9.908;2024-03-02T10:45:20;97029.03;;;16.36
27826;BMP280;15077;49.704;9.908;2024-03-02T10:47:48;97022.75;;;16.40
27826;BMP280;15077;49.704;9.908;2024-03-02T10:50:13;97031.53;;;16.47
27826;BMP280;15077;49.704;9.908;2024-03-02T10:52:39;97012.47;;;16.51
27826;BMP280;15077;49.704;9.908;2024-03-02T10:55:11;97024.75;;;16.56
27826;BMP280;15077;49.704;9.908;2024-03-02T10:57:57;97020.22;;;16.60
27826;BMP280;15077;49.704;9.908;2024-03-02T11:00:25;97020.78;;;16.63
27826;BMP280;15077;49.704;9.908;2024-03-02T11:03:03;97019.38;;;16.70
27826;BMP280;15077;49.704;9.908;2024-03-02T11:05:36;97012.78;;;16.77
27826;BMP280;15077;49.704;9.908;2024-03-02T11:08:07;97007.16;;;16.83
27826;BMP280;15077;49.704;9.908;2024-03-02T11:10:47;97019.91;;;16.94
27826;BMP280;15077;49.704;9.908;2024-03-02T11:13:14;97014.28;;;17.00
27826;BMP280;15077;49.704;9.908;2024-03-02T11:15:43;97018.53;;;17.10
27826;BMP280;15077;49.704;9.908;2024-03-02T11:18:10;97014.25;;;17.20
27826;BMP280;15077;49.704;9.908;2024-03-02T11:20:40;97008.28;;;17.31
27826;BMP280;15077;49.704;9.908;2024-03-02T11:23:07;97007.25;;;17.43
27826;BMP280;15077;49.704;9.908;2024-03-02T11:25:33;97007.84;;;17.55
27826;BMP280;15077;49.704;9.908;2024-03-02T11:28:00;97007.72;;;17.66
27826;BMP280;15077;49.704;9.908;2024-03-02T11:33:02;97001.03;;;17.94
27826;BMP280;15077;49.704;9.908;2024-03-02T11:35:52;96999.88;;;18.07
27826;BMP280;15077;49.704;9.908;2024-03-02T11:38:18;96991.78;;;18.21
27826;BMP280;15077;49.704;9.908;2024-03-02T11:40:44;96980.72;;;18.30
27826;BMP280;15077;49.704;9.908;2024-03-02T11:43:10;96982.34;;;18.40
27826;BMP280;15077;49.704;9.908;2024-03-02T11:45:37;96984.78;;;18.51
27826;BMP280;15077;49.704;9.908;2024-03-02T11:48:08;96984.63;;;18.62
27826;BMP280;15077;49.704;9.908;2024-03-02T11:50:49;96972.47;;;18.73
27826;BMP280;15077;49.704;9.908;2024-03-02T11:53:15;96964.59;;;18.84
27826;BMP280;15077;49.704;9.908;2024-03-02T11:55:42;96961.19;;;18.93
27826;BMP280;15077;49.704;9.908;2024-03-02T11:58:15;96948.47;;;19.01
27826;BMP280;15077;49.704;9.908;2024-03-02T12:00:46;96949.81;;;19.05
27826;BMP280;15077;49.704;9.908;2024-03-02T12:03:13;96946.84;;;19.09
27826;BMP280;15077;49.704;9.908;2024-03-02T12:05:39;96942.75;;;19.16
27826;BMP280;15077;49.704;9.908;2024-03-02T12:08:06;96938.97;;;19.20
27826;BMP280;15077;49.704;9.908;2024-03-02T12:10:33;96941.13;;;19.25
27826;BMP280;15077;49.704;9.908;2024-03-02T12:13:04;96931.88;;;19.32
27826;BMP280;15077;49.704;9.908;2024-03-02T12:15:32;96933.22;;;19.36
27826;BMP280;15077;49.704;9.908;2024-03-02T12:17:59;96918.34;;;19.39
27826;BMP280;15077;49.704;9.908;2024-03-02T12:20:27;96928.19;;;19.44
27826;BMP280;15077;49.704;9.908;2024-03-02T12:22:55;96923.19;;;19.42
27826;BMP280;15077;49.704;9.908;2024-03-02T12:25:23;96914.66;;;19.42
27826;BMP280;15077;49.704;9.908;2024-03-02T12:27:51;96914.38;;;19.45
27826;BMP280;15077;49.704;9.908;2024-03-02T12:30:17;96910.84;;;19.46
27826;BMP280;15077;49.704;9.908;2024-03-02T12:32:44;96908.94;;;19.47
27826;BMP280;15077;49.704;9.908;2024-03-02T12:35:13;96907.56;;;19.53
27826;BMP280;15077;49.704;9.908;2024-03-02T12:37:45;96905.50;;;19.56
27826;BMP280;15077;49.704;9.908;2024-03-02T12:40:12;96893.84;;;19.62
27826;BMP280;15077;49.704;9.908;2024-03-02T12:42:39;96888.91;;;19.68
27826;BMP280;15077;49.704;9.908;2024-03-02T12:45:06;96887.38;;;19.75
27826;BMP280;15077;49.704;9.908;2024-03-02T12:47:33;96894.38;;;19.83
27826;BMP280;15077;49.704;9.908;2024-03-02T12:49:59;96876.78;;;19.88
27826;BMP280;15077;49.704;9.908;2024-03-02T12:52:24;96871.19;;;19.92
27826;BMP280;15077;49.704;9.908;2024-03-02T12:54:50;96882.78;;;19.96
27826;BMP280;15077;49.704;9.908;2024-03-02T12:57:19;96878.19;;;19.99
27826;BMP280;15077;49.704;9.908;2024-03-02T12:59:45;96870.03;;;20.04
27826;BMP280;15077;49.704;9.908;2024-03-02T13:02:18;96860.97;;;20.00
27826;BMP280;15077;49.704;9.908;2024-03-02T13:04:44;96868.97;;;19.97
27826;BMP280;15077;49.704;9.908;2024-03-02T13:07:10;96859.63;;;19.96
27826;BMP280;15077;49.704;9.908;2024-03-02T13:09:39;96859.00;;;19.94
27826;BMP280;15077;49.704;9.908;2024-03-02T13:12:05;96849.50;;;19.95
27826;BMP280;15077;49.704;9.908;2024-03-02T13:14:35;96843.91;;;19.99
27826;BMP280;15077;49.704;9.908;2024-03-02T13:17:01;96837.88;;;20.08
27826;BMP280;15077;49.704;9.908;2024-03-02T13:19:29;96835.88;;;20.19
27826;BMP280;15077;49.704;9.908;2024-03-02T13:21:56;96841.53;;;20.23
27826;BMP280;15077;49.704;9.908;2024-03-02T13:24:27;96830.13;;;20.25
27826;BMP280;15077;49.704;9.908;2024-03-02T13:26:55;96835.81;;;20.29
27826;BMP280;15077;49.704;9.908;2024-03-02T13:29:22;96832.09;;;20.31
27826;BMP280;15077;49.704;9.908;2024-03-02T13:31:48;96829.84;;;20.28
27826;BMP280;15077;49.704;9.908;2024-03-02T13:34:14;96824.03;;;20.26
27826;BMP280;15077;49.704;9.908;2024-03-02T13:36:39;96829.50;;;20.23
27826;BMP280;15077;49.704;9.908;2024-03-02T13:39:05;96827.06;;;20.22
27826;BMP280;15077;49.704;9.908;2024-03-02T13:41:32;96831.91;;;20.25
27826;BMP280;15077;49.704;9.908;2024-03-02T13:43:57;96828.09;;;20.29
27826;BMP280;15077;49.704;9.908;2024-03-02T13:46:26;96821.00;;;20.31
27826;BMP280;15077;49.704;9.908;2024-03-02T13:48:52;96819.91;;;20.33
27826;BMP280;15077;49.704;9.908;2024-03-02T13:51:18;96818.47;;;20.39
27826;BMP280;15077;49.704;9.908;2024-03-02T13:53:44;96824.31;;;20.41
27826;BMP280;15077;49.704;9.908;2024-03-02T13:56:09;96824.00;;;20.44
27826;BMP280;15077;49.704;9.908;2024-03-02T13:58:35;96822.88;;;20.46
27826;BMP280;15077;49.704;9.908;2024-03-02T14:01:01;96814.84;;;20.49
27826;BMP280;15077;49.704;9.908;2024-03-02T14:03:30;96819.69;;;20.52
27826;BMP280;15077;49.704;9.908;2024-03-02T14:05:55;96821.00;;;20.56
27826;BMP280;15077;49.704;9.908;2024-03-02T14:08:21;96819.38;;;20.55
27826;BMP280;15077;49.704;9.908;2024-03-02T14:10:47;96808.28;;;20.54
27826;BMP280;15077;49.704;9.908;2024-03-02T14:13:12;96813.44;;;20.54